SouthEast Lincoln: Weather Underground Data


Davis Vantage Pro Historical Data
 
Daily Summary for May 26, 2017 Units:  English    Metric   Both
« Previous Day
Next Day »
Daily Weekly Monthly Yearly Custom
  Current: High: Low: Average:
Temperature: 64.8 °F 69.7 °F 64.8 °F 67.6 °F
Dew Point: 57.8 °F 58.0 °F 57.1 °F 57.6 °F
Humidity: 78% 78% 65% 71%
Wind Speed: 0.0mph 7.0mph 0.0mph 2.3mph
Wind Gust: 0.0mph 8.0mph - -
Wind:Calm - - SE
Pressure: 29.59 in 29.63 in 29.57 in -
Precipitation: 0.00 in      
Historical Graphs
 
 
Tabular Data for May 26, 2017
Time Temperature Dew Point Pressure Wind Wind Speed Wind Gust Humidity Rainfall Rate (Hourly) solar
00:02 69.4 °F 57.6 °F 29.63 in SE 6.0 mph 6.0 mph 66% 0.00 in 0.00 W/m2
00:07 69.4 °F 57.1 °F 29.63 in SE 6.0 mph 6.0 mph 65% 0.00 in 0.00 W/m2
00:12 69.5 °F 57.2 °F 29.63 in NNW 2.0 mph 4.0 mph 65% 0.00 in 0.00 W/m2
00:17 69.5 °F 57.2 °F 29.63 in SSE 4.0 mph 4.0 mph 65% 0.00 in 0.00 W/m2
00:22 69.5 °F 57.2 °F 29.63 in SSE 5.0 mph 7.0 mph 65% 0.00 in 0.00 W/m2
00:27 69.6 °F 57.3 °F 29.63 in SSE 6.0 mph 6.0 mph 65% 0.00 in 0.00 W/m2
00:32 69.7 °F 57.4 °F 29.63 in South 2.0 mph 6.0 mph 65% 0.00 in 0.00 W/m2
00:37 69.7 °F 57.4 °F 29.62 in SE 2.0 mph 5.0 mph 65% 0.00 in 0.00 W/m2
00:42 69.6 °F 57.3 °F 29.62 in SE 4.0 mph 5.0 mph 65% 0.00 in 0.00 W/m2
00:47 69.5 °F 57.2 °F 29.62 in SSE 5.0 mph 6.0 mph 65% 0.00 in 0.00 W/m2
00:52 69.5 °F 57.2 °F 29.62 in SSE 5.0 mph 5.0 mph 65% 0.00 in 0.00 W/m2
00:57 69.4 °F 57.1 °F 29.62 in SSE 5.0 mph 5.0 mph 65% 0.00 in 0.00 W/m2
01:02 69.4 °F 57.6 °F 29.61 in ESE 4.0 mph 7.0 mph 66% 0.00 in 0.00 W/m2
01:12 69.2 °F 57.8 °F 29.61 in SSE 2.0 mph 5.0 mph 67% 0.00 in 0.00 W/m2
01:17 69.0 °F 57.6 °F 29.61 in SE 4.0 mph 4.0 mph 67% 0.00 in 0.00 W/m2
01:22 68.9 °F 57.5 °F 29.61 in SE 2.0 mph 4.0 mph 67% 0.00 in 0.00 W/m2
01:27 68.8 °F 57.4 °F 29.60 in SE 5.0 mph 8.0 mph 67% 0.00 in 0.00 W/m2
01:32 68.7 °F 57.3 °F 29.60 in SSE 4.0 mph 4.0 mph 67% 0.00 in 0.00 W/m2
01:37 68.5 °F 57.5 °F 29.60 in ESE 4.0 mph 4.0 mph 68% 0.00 in 0.00 W/m2
01:42 68.4 °F 57.4 °F 29.60 in SE 5.0 mph 8.0 mph 68% 0.00 in 0.00 W/m2
01:47 68.2 °F 57.7 °F 29.60 in ESE 7.0 mph 7.0 mph 69% 0.00 in 0.00 W/m2
01:52 68.1 °F 57.6 °F 29.59 in SSE 2.0 mph 7.0 mph 69% 0.00 in 0.00 W/m2
01:57 68.0 °F 57.5 °F 29.59 in East 1.0 mph 4.0 mph 69% 0.00 in 0.00 W/m2
02:02 67.9 °F 57.4 °F 29.60 in SSE 1.0 mph 2.0 mph 69% 0.00 in 0.00 W/m2
02:07 67.8 °F 57.3 °F 29.59 in SSE 2.0 mph 4.0 mph 69% 0.00 in 0.00 W/m2
02:12 67.7 °F 57.6 °F 29.59 in Calm   1.0 mph 70% 0.00 in 0.00 W/m2
02:17 67.6 °F 57.5 °F 29.59 in ESE 4.0 mph 7.0 mph 70% 0.00 in 0.00 W/m2
02:22 67.4 °F 57.7 °F 29.59 in SE 5.0 mph 5.0 mph 71% 0.00 in 0.00 W/m2
02:27 67.2 °F 57.5 °F 29.59 in SE 2.0 mph 6.0 mph 71% 0.00 in 0.00 W/m2
02:32 67.1 °F 57.4 °F 29.59 in ESE 2.0 mph 2.0 mph 71% 0.00 in 0.00 W/m2
02:37 67.0 °F 57.7 °F 29.59 in ESE 1.0 mph 2.0 mph 72% 0.00 in 0.00 W/m2
02:42 66.8 °F 57.5 °F 29.60 in ESE 1.0 mph 2.0 mph 72% 0.00 in 0.00 W/m2
02:47 66.8 °F 57.9 °F 29.60 in SE 1.0 mph 2.0 mph 73% 0.00 in 0.00 W/m2
02:52 66.7 °F 57.8 °F 29.60 in SE 1.0 mph 1.0 mph 73% 0.00 in 0.00 W/m2
02:57 66.6 °F 57.7 °F 29.60 in SE 1.0 mph 2.0 mph 73% 0.00 in 0.00 W/m2
03:02 66.5 °F 57.6 °F 29.60 in SE 2.0 mph 2.0 mph 73% 0.00 in 0.00 W/m2
03:07 66.5 °F 57.6 °F 29.60 in Calm   1.0 mph 73% 0.00 in 0.00 W/m2
03:12 66.4 °F 57.9 °F 29.60 in SE 1.0 mph 1.0 mph 74% 0.00 in 0.00 W/m2
03:17 66.3 °F 57.8 °F 29.60 in Calm     74% 0.00 in 0.00 W/m2
03:22 66.1 °F 57.6 °F 29.60 in Calm     74% 0.00 in 0.00 W/m2
03:27 66.1 °F 58.0 °F 29.60 in Calm     75% 0.00 in 0.00 W/m2
03:32 65.9 °F 57.8 °F 29.60 in Calm     75% 0.00 in 0.00 W/m2
03:37 65.8 °F 57.7 °F 29.60 in Calm     75% 0.00 in 0.00 W/m2
03:38 65.8 °F 57.7 °F 29.60 in Calm     75% 0.00 in 0.00 W/m2
03:43 65.6 °F 57.8 °F 29.60 in Calm     76% 0.00 in 0.00 W/m2
03:48 65.5 °F 57.7 °F 29.60 in Calm     76% 0.00 in 0.00 W/m2
03:53 65.4 °F 58.0 °F 29.59 in Calm     77% 0.00 in 0.00 W/m2
03:58 65.2 °F 57.8 °F 29.59 in Calm     77% 0.00 in 0.00 W/m2
04:03 65.0 °F 58.0 °F 29.57 in East 3.0 mph 3.0 mph 78% 0.00 in 0.00 W/m2
04:08 64.8 °F 57.8 °F 29.57 in ENE 2.0 mph 2.0 mph 78% 0.00 in 0.00 W/m2
04:13 64.8 °F 57.8 °F 29.59 in NE 1.0 mph 1.0 mph 78% 0.00 in 0.00 W/m2
04:18 64.8 °F 57.8 °F 29.59 in Calm     78% 0.00 in 0.00 W/m2
SouthEast Lincoln Weather
Compliments of Weather Underground - 2 mb